Overview Statistics Trail Chart Weather Telemetry Raw packets
 

This is the latest recevied weather packets stored in our database for station/object XE2AD-5. If no packets are shown the sender has not sent any weather packets the latest 10 day(s).

<< 7 8 9 10 11 >>
Time Temp. Humidity Pressure Rain* Wind** Luminosity Snow
1777171190 27.78° C 14% 803.8 hPa - - - -
1777167890 27.78° C 14% 803.3 hPa - - - -
1777164590 27.78° C 16% 802.9 hPa - - - -
1777161289 27.78° C 15% 802.8 hPa - - - -
1777157989 27.78° C 15% 802.8 hPa - - - -
1777154689 27.22° C 16% 803.1 hPa - - - -
1777151389 26.67° C 16% 803.6 hPa - - - -
1777148088 26.11° C 17% 804.3 hPa - - - -
1777144788 25.56° C 20% 805.2 hPa - - - -
1777141488 25° C 23% 806.1 hPa - - - -
1777138187 24.44° C 25% 806.7 hPa - - - -
1777134887 23.89° C 26% 807.2 hPa - - - -
1777131587 23.89° C 26% 807.4 hPa - - - -
1777128286 24.44° C 26% 807.2 hPa - - - -
1777124986 24.44° C 25% 807 hPa - - - -
1777121685 24.44° C 25% 806.6 hPa - - - -
1777118385 25° C 24% 806 hPa - - - -
1777115085 25.56° C 24% 805.5 hPa - - - -
1777111785 25.56° C 24% 805.4 hPa - - - -
1777108484 26.11° C 22% 805.2 hPa - - - -
1777105184 26.11° C 22% 805.3 hPa - - - -
1777101884 26.67° C 22% 805.3 hPa - - - -
1777098583 26.67° C 22% 805.4 hPa - - - -
1777095283 27.22° C 21% 805.6 hPa - - - -
1777091983 27.22° C 21% 805.4 hPa - - - -

* Rain since midnight (hover to see other rain measurements)
** Current wind speed in m/s (hover to see current wind gust speed)